sensor_id;sensor_type;location;lat;lon;timestamp;pressure;altitude;pressure_sealevel;temperature
11424;BMP180;5768;51.476;7.210;2024-02-26T00:03:06;98552.00;;;10.60
11424;BMP180;5768;51.476;7.210;2024-02-26T00:08:10;98545.00;;;10.60
11424;BMP180;5768;51.476;7.210;2024-02-26T00:13:12;98535.00;;;10.60
11424;BMP180;5768;51.476;7.210;2024-02-26T00:18:15;98551.00;;;10.60
11424;BMP180;5768;51.476;7.210;2024-02-26T00:23:18;98543.00;;;10.60
11424;BMP180;5768;51.476;7.210;2024-02-26T00:28:21;98546.00;;;10.60
11424;BMP180;5768;51.476;7.210;2024-02-26T00:33:23;98555.00;;;10.70
11424;BMP180;5768;51.476;7.210;2024-02-26T00:38:27;98555.00;;;10.70
11424;BMP180;5768;51.476;7.210;2024-02-26T00:43:29;98549.00;;;10.70
11424;BMP180;5768;51.476;7.210;2024-02-26T00:48:31;98547.00;;;10.70
11424;BMP180;5768;51.476;7.210;2024-02-26T00:53:34;98554.00;;;10.70
11424;BMP180;5768;51.476;7.210;2024-02-26T00:58:37;98558.00;;;10.70
11424;BMP180;5768;51.476;7.210;2024-02-26T01:03:39;98551.00;;;10.70
11424;BMP180;5768;51.476;7.210;2024-02-26T01:08:43;98539.00;;;10.70
11424;BMP180;5768;51.476;7.210;2024-02-26T01:13:45;98539.00;;;10.60
11424;BMP180;5768;51.476;7.210;2024-02-26T01:18:47;98528.00;;;10.60
11424;BMP180;5768;51.476;7.210;2024-02-26T01:23:51;98540.00;;;10.50
11424;BMP180;5768;51.476;7.210;2024-02-26T01:28:53;98540.00;;;10.50
11424;BMP180;5768;51.476;7.210;2024-02-26T01:33:56;98558.00;;;10.50
11424;BMP180;5768;51.476;7.210;2024-02-26T01:39:00;98552.00;;;10.50
11424;BMP180;5768;51.476;7.210;2024-02-26T01:44:04;98544.00;;;10.50
11424;BMP180;5768;51.476;7.210;2024-02-26T01:49:08;98546.00;;;10.40
11424;BMP180;5768;51.476;7.210;2024-02-26T01:54:15;98549.00;;;10.40
11424;BMP180;5768;51.476;7.210;2024-02-26T01:59:18;98543.00;;;10.40
11424;BMP180;5768;51.476;7.210;2024-02-26T02:04:21;98539.00;;;10.40
11424;BMP180;5768;51.476;7.210;2024-02-26T02:09:27;98530.00;;;10.40
11424;BMP180;5768;51.476;7.210;2024-02-26T02:14:29;98540.00;;;10.40
11424;BMP180;5768;51.476;7.210;2024-02-26T02:19:31;98543.00;;;10.30
11424;BMP180;5768;51.476;7.210;2024-02-26T02:24:35;98548.00;;;10.40
11424;BMP180;5768;51.476;7.210;2024-02-26T02:29:37;98554.00;;;10.40
11424;BMP180;5768;51.476;7.210;2024-02-26T02:34:41;98557.00;;;10.40
11424;BMP180;5768;51.476;7.210;2024-02-26T02:39:45;98562.00;;;10.40
11424;BMP180;5768;51.476;7.210;2024-02-26T02:44:47;98564.00;;;10.40
11424;BMP180;5768;51.476;7.210;2024-02-26T02:49:49;98564.00;;;10.40
11424;BMP180;5768;51.476;7.210;2024-02-26T02:54:53;98557.00;;;10.40
11424;BMP180;5768;51.476;7.210;2024-02-26T02:59:56;98558.00;;;10.40
11424;BMP180;5768;51.476;7.210;2024-02-26T03:04:58;98561.00;;;10.40
11424;BMP180;5768;51.476;7.210;2024-02-26T03:10:01;98563.00;;;10.50
11424;BMP180;5768;51.476;7.210;2024-02-26T03:15:07;98570.00;;;10.50
11424;BMP180;5768;51.476;7.210;2024-02-26T03:20:10;98590.00;;;10.50
11424;BMP180;5768;51.476;7.210;2024-02-26T03:25:14;98586.00;;;10.50
11424;BMP180;5768;51.476;7.210;2024-02-26T03:30:17;98586.00;;;10.50
11424;BMP180;5768;51.476;7.210;2024-02-26T03:35:19;98584.00;;;10.50
11424;BMP180;5768;51.476;7.210;2024-02-26T03:40:22;98586.00;;;10.50
11424;BMP180;5768;51.476;7.210;2024-02-26T03:45:25;98579.00;;;10.50
11424;BMP180;5768;51.476;7.210;2024-02-26T03:50:28;98563.00;;;10.50
11424;BMP180;5768;51.476;7.210;2024-02-26T03:55:31;98567.00;;;10.40
11424;BMP180;5768;51.476;7.210;2024-02-26T04:00:33;98581.00;;;10.40
11424;BMP180;5768;51.476;7.210;2024-02-26T04:05:35;98565.00;;;10.40
11424;BMP180;5768;51.476;7.210;2024-02-26T04:10:39;98571.00;;;10.40
11424;BMP180;5768;51.476;7.210;2024-02-26T04:15:41;98561.00;;;10.40
11424;BMP180;5768;51.476;7.210;2024-02-26T04:20:43;98564.00;;;10.30
11424;BMP180;5768;51.476;7.210;2024-02-26T04:25:47;98564.00;;;10.30
11424;BMP180;5768;51.476;7.210;2024-02-26T04:30:49;98565.00;;;10.30
11424;BMP180;5768;51.476;7.210;2024-02-26T04:35:51;98581.00;;;10.20
11424;BMP180;5768;51.476;7.210;2024-02-26T04:40:55;98576.00;;;10.20
11424;BMP180;5768;51.476;7.210;2024-02-26T04:45:57;98591.00;;;10.20
11424;BMP180;5768;51.476;7.210;2024-02-26T04:50:59;98587.00;;;10.20
11424;BMP180;5768;51.476;7.210;2024-02-26T04:56:03;98590.00;;;10.20
11424;BMP180;5768;51.476;7.210;2024-02-26T05:01:06;98602.00;;;10.20
11424;BMP180;5768;51.476;7.210;2024-02-26T05:06:11;98609.00;;;10.20
11424;BMP180;5768;51.476;7.210;2024-02-26T05:11:15;98610.00;;;10.20
11424;BMP180;5768;51.476;7.210;2024-02-26T05:16:19;98615.00;;;10.20
11424;BMP180;5768;51.476;7.210;2024-02-26T05:21:22;98629.00;;;10.20
11424;BMP180;5768;51.476;7.210;2024-02-26T05:26:25;98625.00;;;10.20
11424;BMP180;5768;51.476;7.210;2024-02-26T05:31:28;98620.00;;;10.10
11424;BMP180;5768;51.476;7.210;2024-02-26T05:36:30;98625.00;;;10.10
11424;BMP180;5768;51.476;7.210;2024-02-26T05:41:35;98628.00;;;10.10
11424;BMP180;5768;51.476;7.210;2024-02-26T05:46:37;98634.00;;;10.10
11424;BMP180;5768;51.476;7.210;2024-02-26T05:51:40;98633.00;;;10.00
11424;BMP180;5768;51.476;7.210;2024-02-26T05:56:43;98646.00;;;10.00
11424;BMP180;5768;51.476;7.210;2024-02-26T06:01:45;98642.00;;;10.00
11424;BMP180;5768;51.476;7.210;2024-02-26T06:06:48;98648.00;;;9.90
11424;BMP180;5768;51.476;7.210;2024-02-26T06:11:51;98654.00;;;9.90
11424;BMP180;5768;51.476;7.210;2024-02-26T06:16:56;98653.00;;;9.90
11424;BMP180;5768;51.476;7.210;2024-02-26T06:21:59;98667.00;;;9.90
11424;BMP180;5768;51.476;7.210;2024-02-26T06:27:03;98672.00;;;9.90
11424;BMP180;5768;51.476;7.210;2024-02-26T06:32:06;98664.00;;;9.90
11424;BMP180;5768;51.476;7.210;2024-02-26T06:37:08;98675.00;;;10.00
11424;BMP180;5768;51.476;7.210;2024-02-26T06:42:12;98672.00;;;9.90
11424;BMP180;5768;51.476;7.210;2024-02-26T06:47:14;98672.00;;;9.90
11424;BMP180;5768;51.476;7.210;2024-02-26T06:52:16;98669.00;;;10.00
11424;BMP180;5768;51.476;7.210;2024-02-26T06:57:20;98673.00;;;9.90
11424;BMP180;5768;51.476;7.210;2024-02-26T07:02:22;98686.00;;;10.00
11424;BMP180;5768;51.476;7.210;2024-02-26T07:07:25;98688.00;;;10.00
11424;BMP180;5768;51.476;7.210;2024-02-26T07:12:31;98698.00;;;10.10
11424;BMP180;5768;51.476;7.210;2024-02-26T07:17:34;98696.00;;;10.10
11424;BMP180;5768;51.476;7.210;2024-02-26T07:22:36;98705.00;;;10.20
11424;BMP180;5768;51.476;7.210;2024-02-26T07:27:41;98707.00;;;10.20
11424;BMP180;5768;51.476;7.210;2024-02-26T07:32:43;98718.00;;;10.20
11424;BMP180;5768;51.476;7.210;2024-02-26T07:37:48;98721.00;;;10.20
11424;BMP180;5768;51.476;7.210;2024-02-26T07:42:53;98729.00;;;10.30
11424;BMP180;5768;51.476;7.210;2024-02-26T07:47:55;98733.00;;;10.30
11424;BMP180;5768;51.476;7.210;2024-02-26T07:52:57;98738.00;;;10.30
11424;BMP180;5768;51.476;7.210;2024-02-26T07:58:01;98747.00;;;10.40
11424;BMP180;5768;51.476;7.210;2024-02-26T08:03:04;98746.00;;;10.40
11424;BMP180;5768;51.476;7.210;2024-02-26T08:08:09;98756.00;;;10.40
11424;BMP180;5768;51.476;7.210;2024-02-26T08:13:19;98760.00;;;10.40
11424;BMP180;5768;51.476;7.210;2024-02-26T08:18:21;98764.00;;;10.50
11424;BMP180;5768;51.476;7.210;2024-02-26T08:23:26;98767.00;;;10.60
11424;BMP180;5768;51.476;7.210;2024-02-26T08:28:32;98768.00;;;10.60
11424;BMP180;5768;51.476;7.210;2024-02-26T08:33:36;98776.00;;;10.70
11424;BMP180;5768;51.476;7.210;2024-02-26T08:38:39;98778.00;;;10.80
11424;BMP180;5768;51.476;7.210;2024-02-26T08:43:42;98770.00;;;10.90
11424;BMP180;5768;51.476;7.210;2024-02-26T08:48:44;98763.00;;;10.90
11424;BMP180;5768;51.476;7.210;2024-02-26T08:53:47;98772.00;;;10.90
11424;BMP180;5768;51.476;7.210;2024-02-26T08:58:50;98773.00;;;10.90
11424;BMP180;5768;51.476;7.210;2024-02-26T09:04:03;98785.00;;;11.00
11424;BMP180;5768;51.476;7.210;2024-02-26T09:09:05;98781.00;;;11.10
11424;BMP180;5768;51.476;7.210;2024-02-26T09:14:09;98792.00;;;11.20
11424;BMP180;5768;51.476;7.210;2024-02-26T09:19:12;98802.00;;;11.20
11424;BMP180;5768;51.476;7.210;2024-02-26T09:24:15;98813.00;;;11.20
11424;BMP180;5768;51.476;7.210;2024-02-26T09:29:19;98813.00;;;11.20
11424;BMP180;5768;51.476;7.210;2024-02-26T09:34:21;98828.00;;;11.30
11424;BMP180;5768;51.476;7.210;2024-02-26T09:39:23;98822.00;;;11.30
11424;BMP180;5768;51.476;7.210;2024-02-26T09:44:29;98821.00;;;11.40
11424;BMP180;5768;51.476;7.210;2024-02-26T09:49:35;98828.00;;;11.50
11424;BMP180;5768;51.476;7.210;2024-02-26T09:54:39;98833.00;;;11.50
11424;BMP180;5768;51.476;7.210;2024-02-26T09:59:45;98835.00;;;11.50
11424;BMP180;5768;51.476;7.210;2024-02-26T10:04:50;98837.00;;;11.60
11424;BMP180;5768;51.476;7.210;2024-02-26T10:09:57;98839.00;;;11.70
11424;BMP180;5768;51.476;7.210;2024-02-26T10:15:01;98848.00;;;11.80
11424;BMP180;5768;51.476;7.210;2024-02-26T10:20:14;98854.00;;;12.00
11424;BMP180;5768;51.476;7.210;2024-02-26T10:25:19;98865.00;;;12.00
11424;BMP180;5768;51.476;7.210;2024-02-26T10:30:23;98873.00;;;12.10
11424;BMP180;5768;51.476;7.210;2024-02-26T10:35:27;98886.00;;;12.30
11424;BMP180;5768;51.476;7.210;2024-02-26T10:40:29;98908.00;;;12.30
11424;BMP180;5768;51.476;7.210;2024-02-26T10:45:33;98908.00;;;12.40
11424;BMP180;5768;51.476;7.210;2024-02-26T10:50:39;98908.00;;;12.50
11424;BMP180;5768;51.476;7.210;2024-02-26T10:55:42;98905.00;;;12.60
11424;BMP180;5768;51.476;7.210;2024-02-26T11:00:47;98905.00;;;12.60
11424;BMP180;5768;51.476;7.210;2024-02-26T11:05:51;98916.00;;;12.70
11424;BMP180;5768;51.476;7.210;2024-02-26T11:10:55;98924.00;;;12.80
11424;BMP180;5768;51.476;7.210;2024-02-26T11:16:00;98920.00;;;12.80
11424;BMP180;5768;51.476;7.210;2024-02-26T11:21:04;98924.00;;;12.80
11424;BMP180;5768;51.476;7.210;2024-02-26T11:26:11;98933.00;;;12.90
11424;BMP180;5768;51.476;7.210;2024-02-26T11:31:15;98939.00;;;13.10
11424;BMP180;5768;51.476;7.210;2024-02-26T11:36:20;98943.00;;;13.20
11424;BMP180;5768;51.476;7.210;2024-02-26T11:41:22;98938.00;;;13.30
11424;BMP180;5768;51.476;7.210;2024-02-26T11:46:40;98937.00;;;13.60
11424;BMP180;5768;51.476;7.210;2024-02-26T11:51:43;98943.00;;;14.10
11424;BMP180;5768;51.476;7.210;2024-02-26T11:56:52;98940.00;;;14.40
11424;BMP180;5768;51.476;7.210;2024-02-26T12:01:56;98956.00;;;14.40
11424;BMP180;5768;51.476;7.210;2024-02-26T12:07:02;98950.00;;;14.20
11424;BMP180;5768;51.476;7.210;2024-02-26T12:12:07;98957.00;;;14.00
11424;BMP180;5768;51.476;7.210;2024-02-26T12:17:22;98949.00;;;13.80
11424;BMP180;5768;51.476;7.210;2024-02-26T12:22:25;98953.00;;;14.00
11424;BMP180;5768;51.476;7.210;2024-02-26T12:27:27;98950.00;;;14.40
11424;BMP180;5768;51.476;7.210;2024-02-26T12:32:31;98959.00;;;14.70
11424;BMP180;5768;51.476;7.210;2024-02-26T12:37:34;98974.00;;;15.00
11424;BMP180;5768;51.476;7.210;2024-02-26T12:42:42;98984.00;;;14.80
11424;BMP180;5768;51.476;7.210;2024-02-26T12:47:46;98971.00;;;14.50
11424;BMP180;5768;51.476;7.210;2024-02-26T12:52:51;98985.00;;;14.10
11424;BMP180;5768;51.476;7.210;2024-02-26T12:57:55;98994.00;;;14.00
11424;BMP180;5768;51.476;7.210;2024-02-26T13:03:00;98995.00;;;14.10
11424;BMP180;5768;51.476;7.210;2024-02-26T13:08:05;99004.00;;;14.20
11424;BMP180;5768;51.476;7.210;2024-02-26T13:13:07;99008.00;;;14.10
11424;BMP180;5768;51.476;7.210;2024-02-26T13:18:14;99023.00;;;14.00
11424;BMP180;5768;51.476;7.210;2024-02-26T13:23:17;99032.00;;;13.90
11424;BMP180;5768;51.476;7.210;2024-02-26T13:28:22;99024.00;;;13.70
11424;BMP180;5768;51.476;7.210;2024-02-26T13:33:30;99040.00;;;13.70
11424;BMP180;5768;51.476;7.210;2024-02-26T13:38:35;99051.00;;;13.70
11424;BMP180;5768;51.476;7.210;2024-02-26T13:43:37;99058.00;;;13.60
11424;BMP180;5768;51.476;7.210;2024-02-26T13:48:41;99063.00;;;13.50
11424;BMP180;5768;51.476;7.210;2024-02-26T13:53:44;99061.00;;;13.40
11424;BMP180;5768;51.476;7.210;2024-02-26T13:58:48;99065.00;;;13.40
11424;BMP180;5768;51.476;7.210;2024-02-26T14:03:52;99062.00;;;13.50
11424;BMP180;5768;51.476;7.210;2024-02-26T14:08:56;99070.00;;;13.50
11424;BMP180;5768;51.476;7.210;2024-02-26T14:13:58;99064.00;;;13.50
11424;BMP180;5768;51.476;7.210;2024-02-26T14:19:02;99086.00;;;13.50
11424;BMP180;5768;51.476;7.210;2024-02-26T14:24:05;99092.00;;;13.50
11424;BMP180;5768;51.476;7.210;2024-02-26T14:29:07;99085.00;;;13.40
11424;BMP180;5768;51.476;7.210;2024-02-26T14:34:13;99090.00;;;13.30
11424;BMP180;5768;51.476;7.210;2024-02-26T14:39:18;99103.00;;;13.20
11424;BMP180;5768;51.476;7.210;2024-02-26T14:44:21;99116.00;;;13.20
11424;BMP180;5768;51.476;7.210;2024-02-26T14:49:25;99127.00;;;13.20
11424;BMP180;5768;51.476;7.210;2024-02-26T14:54:31;99121.00;;;13.20
11424;BMP180;5768;51.476;7.210;2024-02-26T14:59:34;99124.00;;;13.20
11424;BMP180;5768;51.476;7.210;2024-02-26T15:04:38;99133.00;;;13.10
11424;BMP180;5768;51.476;7.210;2024-02-26T15:09:41;99138.00;;;13.10
11424;BMP180;5768;51.476;7.210;2024-02-26T15:14:43;99154.00;;;13.00
11424;BMP180;5768;51.476;7.210;2024-02-26T15:19:47;99156.00;;;13.00
11424;BMP180;5768;51.476;7.210;2024-02-26T15:24:49;99158.00;;;12.90
11424;BMP180;5768;51.476;7.210;2024-02-26T15:29:52;99168.00;;;12.90
11424;BMP180;5768;51.476;7.210;2024-02-26T15:35:00;99176.00;;;12.90
11424;BMP180;5768;51.476;7.210;2024-02-26T15:40:04;99185.00;;;12.70
11424;BMP180;5768;51.476;7.210;2024-02-26T15:45:08;99197.00;;;12.60
11424;BMP180;5768;51.476;7.210;2024-02-26T15:50:12;99202.00;;;12.60
11424;BMP180;5768;51.476;7.210;2024-02-26T15:55:15;99218.00;;;12.60
11424;BMP180;5768;51.476;7.210;2024-02-26T16:00:18;99227.00;;;12.60
11424;BMP180;5768;51.476;7.210;2024-02-26T16:05:21;99232.00;;;12.50
11424;BMP180;5768;51.476;7.210;2024-02-26T16:10:23;99243.00;;;12.40
11424;BMP180;5768;51.476;7.210;2024-02-26T16:15:29;99250.00;;;12.30
11424;BMP180;5768;51.476;7.210;2024-02-26T16:20:33;99258.00;;;12.20
11424;BMP180;5768;51.476;7.210;2024-02-26T16:25:36;99270.00;;;12.10
11424;BMP180;5768;51.476;7.210;2024-02-26T16:30:38;99273.00;;;12.10
11424;BMP180;5768;51.476;7.210;2024-02-26T16:35:43;99285.00;;;12.00
11424;BMP180;5768;51.476;7.210;2024-02-26T16:40:45;99288.00;;;12.00
11424;BMP180;5768;51.476;7.210;2024-02-26T16:45:47;99299.00;;;11.90
11424;BMP180;5768;51.476;7.210;2024-02-26T16:50:51;99316.00;;;11.90
11424;BMP180;5768;51.476;7.210;2024-02-26T16:55:54;99322.00;;;11.90
11424;BMP180;5768;51.476;7.210;2024-02-26T17:00:56;99326.00;;;11.90
11424;BMP180;5768;51.476;7.210;2024-02-26T17:05:59;99333.00;;;11.80
11424;BMP180;5768;51.476;7.210;2024-02-26T17:11:02;99342.00;;;11.80
11424;BMP180;5768;51.476;7.210;2024-02-26T17:16:05;99354.00;;;11.70
11424;BMP180;5768;51.476;7.210;2024-02-26T17:21:09;99363.00;;;11.70
11424;BMP180;5768;51.476;7.210;2024-02-26T17:26:17;99375.00;;;11.70
11424;BMP180;5768;51.476;7.210;2024-02-26T17:31:19;99393.00;;;11.70
11424;BMP180;5768;51.476;7.210;2024-02-26T17:36:23;99405.00;;;11.70
11424;BMP180;5768;51.476;7.210;2024-02-26T17:41:25;99415.00;;;11.60
11424;BMP180;5768;51.476;7.210;2024-02-26T17:46:28;99418.00;;;11.60
11424;BMP180;5768;51.476;7.210;2024-02-26T17:51:31;99415.00;;;11.50
11424;BMP180;5768;51.476;7.210;2024-02-26T17:56:34;99428.00;;;11.60
11424;BMP180;5768;51.476;7.210;2024-02-26T18:01:37;99437.00;;;11.50
11424;BMP180;5768;51.476;7.210;2024-02-26T18:06:40;99447.00;;;11.50
11424;BMP180;5768;51.476;7.210;2024-02-26T18:11:45;99457.00;;;11.50
11424;BMP180;5768;51.476;7.210;2024-02-26T18:16:47;99468.00;;;11.50
11424;BMP180;5768;51.476;7.210;2024-02-26T18:21:50;99476.00;;;11.50
11424;BMP180;5768;51.476;7.210;2024-02-26T18:26:52;99488.00;;;11.50
11424;BMP180;5768;51.476;7.210;2024-02-26T18:31:55;99499.00;;;11.50
11424;BMP180;5768;51.476;7.210;2024-02-26T18:36:59;99510.00;;;11.40
11424;BMP180;5768;51.476;7.210;2024-02-26T18:42:01;99515.00;;;11.40
11424;BMP180;5768;51.476;7.210;2024-02-26T18:47:06;99527.00;;;11.40
11424;BMP180;5768;51.476;7.210;2024-02-26T18:52:09;99540.00;;;11.40
11424;BMP180;5768;51.476;7.210;2024-02-26T18:57:11;99542.00;;;11.50
11424;BMP180;5768;51.476;7.210;2024-02-26T19:02:14;99553.00;;;11.50
11424;BMP180;5768;51.476;7.210;2024-02-26T19:07:17;99565.00;;;11.40
11424;BMP180;5768;51.476;7.210;2024-02-26T19:12:19;99575.00;;;11.40
11424;BMP180;5768;51.476;7.210;2024-02-26T19:17:23;99579.00;;;11.40
11424;BMP180;5768;51.476;7.210;2024-02-26T19:22:26;99594.00;;;11.40
11424;BMP180;5768;51.476;7.210;2024-02-26T19:27:28;99592.00;;;11.30
11424;BMP180;5768;51.476;7.210;2024-02-26T19:32:32;99607.00;;;11.30
11424;BMP180;5768;51.476;7.210;2024-02-26T19:37:36;99612.00;;;11.40
11424;BMP180;5768;51.476;7.210;2024-02-26T19:42:38;99620.00;;;11.40
11424;BMP180;5768;51.476;7.210;2024-02-26T19:47:40;99627.00;;;11.40
11424;BMP180;5768;51.476;7.210;2024-02-26T19:52:44;99638.00;;;11.30
11424;BMP180;5768;51.476;7.210;2024-02-26T19:57:46;99640.00;;;11.30
11424;BMP180;5768;51.476;7.210;2024-02-26T20:02:48;99642.00;;;11.30
11424;BMP180;5768;51.476;7.210;2024-02-26T20:07:52;99647.00;;;11.20
11424;BMP180;5768;51.476;7.210;2024-02-26T20:12:54;99669.00;;;11.30
11424;BMP180;5768;51.476;7.210;2024-02-26T20:17:59;99674.00;;;11.30
11424;BMP180;5768;51.476;7.210;2024-02-26T20:23:03;99670.00;;;11.30
11424;BMP180;5768;51.476;7.210;2024-02-26T20:28:05;99686.00;;;11.30
11424;BMP180;5768;51.476;7.210;2024-02-26T20:33:07;99698.00;;;11.30
11424;BMP180;5768;51.476;7.210;2024-02-26T20:38:11;99698.00;;;11.30
11424;BMP180;5768;51.476;7.210;2024-02-26T20:43:14;99707.00;;;11.30
11424;BMP180;5768;51.476;7.210;2024-02-26T20:48:17;99708.00;;;11.30
11424;BMP180;5768;51.476;7.210;2024-02-26T20:53:21;99717.00;;;11.40
11424;BMP180;5768;51.476;7.210;2024-02-26T20:58:23;99727.00;;;11.40
11424;BMP180;5768;51.476;7.210;2024-02-26T21:03:26;99744.00;;;11.30
11424;BMP180;5768;51.476;7.210;2024-02-26T21:08:29;99744.00;;;11.20
11424;BMP180;5768;51.476;7.210;2024-02-26T21:13:31;99756.00;;;11.10
11424;BMP180;5768;51.476;7.210;2024-02-26T21:18:33;99754.00;;;11.10
11424;BMP180;5768;51.476;7.210;2024-02-26T21:23:40;99764.00;;;11.00
11424;BMP180;5768;51.476;7.210;2024-02-26T21:28:42;99770.00;;;11.00
11424;BMP180;5768;51.476;7.210;2024-02-26T21:33:45;99787.00;;;11.00
11424;BMP180;5768;51.476;7.210;2024-02-26T21:38:48;99802.00;;;11.00
11424;BMP180;5768;51.476;7.210;2024-02-26T21:43:51;99805.00;;;11.00
11424;BMP180;5768;51.476;7.210;2024-02-26T21:48:54;99811.00;;;11.00
11424;BMP180;5768;51.476;7.210;2024-02-26T21:53:58;99829.00;;;10.90
11424;BMP180;5768;51.476;7.210;2024-02-26T21:59:00;99831.00;;;10.90
11424;BMP180;5768;51.476;7.210;2024-02-26T22:04:04;99832.00;;;10.90
11424;BMP180;5768;51.476;7.210;2024-02-26T22:09:08;99840.00;;;10.90
11424;BMP180;5768;51.476;7.210;2024-02-26T22:14:11;99854.00;;;10.90
11424;BMP180;5768;51.476;7.210;2024-02-26T22:19:13;99856.00;;;10.90
11424;BMP180;5768;51.476;7.210;2024-02-26T22:24:18;99859.00;;;10.80
11424;BMP180;5768;51.476;7.210;2024-02-26T22:29:20;99866.00;;;10.80
11424;BMP180;5768;51.476;7.210;2024-02-26T22:34:23;99873.00;;;10.70
11424;BMP180;5768;51.476;7.210;2024-02-26T22:39:26;99882.00;;;10.60
11424;BMP180;5768;51.476;7.210;2024-02-26T22:44:28;99893.00;;;10.60
11424;BMP180;5768;51.476;7.210;2024-02-26T22:49:33;99888.00;;;10.60
11424;BMP180;5768;51.476;7.210;2024-02-26T22:54:41;99898.00;;;10.60
11424;BMP180;5768;51.476;7.210;2024-02-26T22:59:43;99898.00;;;10.60
11424;BMP180;5768;51.476;7.210;2024-02-26T23:04:45;99909.00;;;10.70
11424;BMP180;5768;51.476;7.210;2024-02-26T23:09:49;99913.00;;;10.70
11424;BMP180;5768;51.476;7.210;2024-02-26T23:14:51;99906.00;;;10.70
11424;BMP180;5768;51.476;7.210;2024-02-26T23:19:54;99918.00;;;10.70
11424;BMP180;5768;51.476;7.210;2024-02-26T23:24:58;99929.00;;;10.70
11424;BMP180;5768;51.476;7.210;2024-02-26T23:30:00;99933.00;;;10.60
11424;BMP180;5768;51.476;7.210;2024-02-26T23:35:04;99929.00;;;10.60
11424;BMP180;5768;51.476;7.210;2024-02-26T23:40:08;99935.00;;;10.60
11424;BMP180;5768;51.476;7.210;2024-02-26T23:45:12;99939.00;;;10.60
11424;BMP180;5768;51.476;7.210;2024-02-26T23:50:15;99945.00;;;10.60
11424;BMP180;5768;51.476;7.210;2024-02-26T23:55:18;99942.00;;;10.60
